South Timbalier Oil Rig, Louisiana
Current Conditions -  °F | °C
As of 3:15 PM on Saturday 22 Nov 2014 (Local Time) from KSQE Reporting Station
Haze Haze  
Wind Chill: 73°   Ceiling: 3600
Heat Index: 73°   Visibility: 4mi
Dew Point: 70°   Wind: 12mph
Humidity: 88%   Direction: 140°SE
Pressure: 30.01"   Gusts: 20mph
Location:  28.15°N, 90.72°W
Report Text: KSQE 222115Z AUTO 14010G17KT 4SM HZ FEW015 SCT024 BKN036 23/21 A3001 RMK A01
Loading
Personal Weather Stations






























Interactive Weather Map New forecast layout! Learn more

10-Day Weather Forecast

Advertisements
Track Severe Weather on mobile